createdAt,value
2018-06-17T00:02:02.732Z,72.02
2018-06-17T00:04:31.918Z,69.75
2018-06-17T00:07:01.073Z,70.08
2018-06-17T00:09:30.236Z,70.49
2018-06-17T00:11:59.393Z,71.50
2018-06-17T00:14:28.544Z,71.50
2018-06-17T00:16:57.709Z,71.18
2018-06-17T00:19:26.860Z,72.56
2018-06-17T00:21:56.016Z,69.06
2018-06-17T00:24:25.178Z,66.32
2018-06-17T00:26:54.325Z,64.83
2018-06-17T00:29:23.482Z,67.01
2018-06-17T00:31:52.713Z,68.09
2018-06-17T00:34:21.860Z,66.68
2018-06-17T00:36:51.030Z,66.04
2018-06-17T00:39:20.177Z,66.82
2018-06-17T00:41:49.337Z,67.99
2018-06-17T00:44:18.498Z,69.12
2018-06-17T00:46:47.660Z,68.71
2018-06-17T00:49:16.829Z,69.21
2018-06-17T00:51:45.967Z,67.37
2018-06-17T00:54:15.138Z,66.65
2018-06-17T00:56:45.880Z,66.95
2018-06-17T00:59:15.045Z,66.59
2018-06-17T01:01:44.209Z,68.29
2018-06-17T01:04:13.370Z,70.00
2018-06-17T01:06:42.537Z,67.21
2018-06-17T01:09:11.704Z,67.11
2018-06-17T01:11:40.624Z,67.36
2018-06-17T01:14:09.779Z,66.60
2018-06-17T01:16:38.928Z,66.51
2018-06-17T01:19:08.273Z,66.87
2018-06-17T01:21:37.538Z,67.10
2018-06-17T01:24:06.906Z,67.21
2018-06-17T01:26:36.058Z,67.95
2018-06-17T01:29:05.229Z,67.50
2018-06-17T01:31:34.389Z,68.23
2018-06-17T01:34:03.554Z,68.54
2018-06-17T01:36:32.492Z,68.66
2018-06-17T01:39:01.650Z,68.78
2018-06-17T01:41:30.578Z,70.11
2018-06-17T01:43:59.724Z,70.35
2018-06-17T01:46:28.937Z,70.53
2018-06-17T01:48:58.365Z,72.06
2018-06-17T01:51:27.540Z,71.35
2018-06-17T01:53:56.834Z,71.12
2018-06-17T01:56:25.757Z,70.48
2018-06-17T01:58:54.910Z,70.77
2018-06-17T02:01:24.089Z,71.38
2018-06-17T02:03:58.480Z,71.46
2018-06-17T02:06:32.918Z,70.88
2018-06-17T02:09:07.331Z,71.18
2018-06-17T02:11:43.892Z,71.26
2018-06-17T02:14:18.494Z,71.26
2018-06-17T02:16:47.660Z,72.09
2018-06-17T02:19:16.816Z,71.82
2018-06-17T02:21:45.994Z,72.32
2018-06-17T02:24:15.162Z,72.86
2018-06-17T02:26:44.320Z,73.49
2018-06-17T02:29:13.478Z,72.86
2018-06-17T02:31:42.645Z,73.18
2018-06-17T02:34:11.802Z,73.20
2018-06-17T02:36:40.959Z,73.92
2018-06-17T02:39:10.636Z,73.67
2018-06-17T02:41:39.797Z,74.16
2018-06-17T02:44:08.953Z,73.57
2018-06-17T02:46:43.336Z,73.75
2018-06-17T02:49:17.873Z,73.16
2018-06-17T02:51:52.417Z,73.38
2018-06-17T02:54:26.897Z,74.07
2018-06-17T02:56:56.060Z,73.27
2018-06-17T02:59:25.221Z,73.57
2018-06-17T03:01:54.368Z,74.49
2018-06-17T03:04:23.538Z,75.32
2018-06-17T03:06:52.717Z,75.88
2018-06-17T03:09:21.881Z,75.79
2018-06-17T03:11:51.042Z,75.02
2018-06-17T03:14:20.208Z,75.63
2018-06-17T03:16:49.140Z,76.41
2018-06-17T03:19:18.296Z,76.19
2018-06-17T03:21:47.597Z,75.94
2018-06-17T03:24:16.756Z,76.14
2018-06-17T03:26:51.165Z,76.57
2018-06-17T03:29:25.712Z,76.28
2018-06-17T03:32:00.116Z,77.24
2018-06-17T03:34:29.286Z,77.67
2018-06-17T03:36:58.438Z,77.55
2018-06-17T03:39:27.589Z,78.27
2018-06-17T03:41:56.745Z,78.57
2018-06-17T03:44:25.923Z,78.81
2018-06-17T03:46:55.092Z,78.23
2018-06-17T03:49:24.261Z,78.61
2018-06-17T03:51:53.433Z,78.77
2018-06-17T03:54:22.593Z,79.69
2018-06-17T03:56:51.751Z,79.32
2018-06-17T03:59:20.925Z,79.24
2018-06-17T04:01:50.075Z,79.77
2018-06-17T04:04:21.166Z,80.46
2018-06-17T04:06:50.327Z,81.20
2018-06-17T04:09:19.488Z,80.52
2018-06-17T04:11:48.645Z,80.78
2018-06-17T04:14:17.572Z,80.40
2018-06-17T04:16:46.946Z,80.05
2018-06-17T04:19:15.876Z,79.34
2018-06-17T04:21:45.045Z,80.08
2018-06-17T04:24:14.183Z,80.12
2018-06-17T04:26:43.344Z,80.45
2018-06-17T04:29:12.500Z,79.79
2018-06-17T04:31:41.717Z,80.37
2018-06-17T04:34:10.890Z,79.94
2018-06-17T04:36:40.044Z,80.51
2018-06-17T04:39:09.350Z,80.14
2018-06-17T04:41:38.517Z,80.41
2018-06-17T04:44:07.677Z,81.39
2018-06-17T04:46:36.836Z,80.37
2018-06-17T04:49:06.003Z,80.78
2018-06-17T04:51:35.190Z,80.53
2018-06-17T04:54:04.125Z,79.80
2018-06-17T04:56:33.272Z,80.10
2018-06-17T04:59:02.205Z,79.81
2018-06-17T05:01:31.372Z,79.96
2018-06-17T05:04:00.546Z,80.92
2018-06-17T05:06:29.718Z,80.18
2018-06-17T05:08:58.913Z,80.18
2018-06-17T05:11:28.704Z,79.52
2018-06-17T05:13:57.864Z,80.08
2018-06-17T05:16:27.029Z,80.77
2018-06-17T05:18:56.186Z,80.31
2018-06-17T05:21:25.336Z,81.26
2018-06-17T05:23:54.494Z,80.63
2018-06-17T05:26:23.650Z,80.30
2018-06-17T05:28:52.817Z,80.12
2018-06-17T05:31:21.988Z,79.39
2018-06-17T05:33:51.208Z,79.86
2018-06-17T05:36:20.307Z,80.17
2018-06-17T05:38:49.465Z,79.85
2018-06-17T05:41:18.607Z,80.37
2018-06-17T05:43:47.779Z,79.86
2018-06-17T05:46:16.961Z,80.10
2018-06-17T05:48:46.142Z,79.51
2018-06-17T05:51:15.289Z,79.43
2018-06-17T05:53:44.447Z,79.46
2018-06-17T05:56:13.821Z,80.60
2018-06-17T05:58:42.760Z,80.03
2018-06-17T06:01:11.911Z,79.83
2018-06-17T06:03:41.069Z,79.61
2018-06-17T06:06:10.239Z,78.97
2018-06-17T06:08:39.424Z,78.82
2018-06-17T06:11:08.583Z,79.75
2018-06-17T06:13:37.757Z,80.14
2018-06-17T06:16:07.097Z,80.05
2018-06-17T06:18:36.252Z,80.01
2018-06-17T06:21:05.424Z,79.93
2018-06-17T06:23:34.567Z,80.64
2018-06-17T06:26:03.740Z,81.06
2018-06-17T06:28:32.884Z,79.78
2018-06-17T06:31:02.124Z,79.43
2018-06-17T06:33:30.984Z,79.16
2018-06-17T06:36:00.153Z,80.01
2018-06-17T06:38:29.314Z,80.20
2018-06-17T06:40:58.474Z,78.89
2018-06-17T06:43:27.637Z,78.82
2018-06-17T06:45:56.796Z,78.23
2018-06-17T06:48:25.950Z,77.31
2018-06-17T06:50:55.560Z,78.19
2018-06-17T06:53:24.645Z,77.09
2018-06-17T06:55:53.816Z,77.67
2018-06-17T06:58:22.969Z,76.75
2018-06-17T07:00:52.129Z,76.79
2018-06-17T07:03:32.520Z,76.46
2018-06-17T07:06:19.017Z,76.00
2018-06-17T07:09:10.340Z,74.52
2018-06-17T07:11:39.515Z,72.12
2018-06-17T07:14:08.680Z,71.65
2018-06-17T07:16:55.036Z,71.90
2018-06-17T07:19:24.187Z,72.10
2018-06-17T07:21:53.373Z,70.66
2018-06-17T07:24:22.624Z,71.30
2018-06-17T07:27:08.985Z,70.66
2018-06-17T07:29:45.445Z,70.60
2018-06-17T07:32:14.641Z,71.04
2018-06-17T07:34:43.793Z,69.43
2018-06-17T07:37:12.943Z,68.02
2018-06-17T07:41:06.558Z,67.90
2018-06-17T07:43:35.714Z,68.08
2018-06-17T07:46:05.060Z,67.98
2018-06-17T07:49:50.920Z,67.61
2018-06-17T07:52:38.140Z,66.59
2018-06-17T07:55:07.068Z,65.24
2018-06-17T07:57:36.227Z,65.22
2018-06-17T08:00:05.164Z,65.67
2018-06-17T08:02:34.304Z,62.93
2018-06-17T08:05:03.480Z,61.76
2018-06-17T08:07:32.637Z,61.04
2018-06-17T08:10:01.809Z,61.47
2018-06-17T08:12:30.732Z,61.63
2018-06-17T08:14:59.897Z,61.15
2018-06-17T08:17:29.045Z,61.16
2018-06-17T08:19:58.212Z,62.38
2018-06-17T08:22:27.966Z,61.94
2018-06-17T08:24:57.117Z,62.20
2018-06-17T08:27:26.290Z,60.72
2018-06-17T08:29:55.478Z,59.82
2018-06-17T08:32:24.617Z,59.12
2018-06-17T08:34:53.790Z,58.59
2018-06-17T08:37:22.941Z,59.83
2018-06-17T08:39:52.099Z,61.18
2018-06-17T08:42:21.261Z,61.52
2018-06-17T08:44:50.408Z,60.62
2018-06-17T08:47:19.560Z,61.70
2018-06-17T08:49:48.713Z,62.59
2018-06-17T08:52:17.880Z,62.24
2018-06-17T08:54:47.027Z,60.12
2018-06-17T08:57:16.185Z,59.15
2018-06-17T08:59:45.344Z,58.27
2018-06-17T09:02:14.283Z,57.93
2018-06-17T09:04:43.463Z,58.32
2018-06-17T09:07:12.623Z,59.89
2018-06-17T09:09:41.782Z,59.75
2018-06-17T09:12:10.947Z,59.50
2018-06-17T09:14:40.113Z,57.33
2018-06-17T09:17:09.287Z,56.44
2018-06-17T09:19:38.480Z,55.85
2018-06-17T09:22:08.092Z,56.07
2018-06-17T09:24:37.254Z,57.79
2018-06-17T09:27:06.416Z,57.30
2018-06-17T09:29:35.610Z,56.56
2018-06-17T09:32:04.567Z,56.57
2018-06-17T09:34:33.724Z,55.04
2018-06-17T09:37:02.937Z,53.53
2018-06-17T09:39:32.095Z,52.89
2018-06-17T09:42:01.248Z,53.60
2018-06-17T09:44:30.500Z,54.99
2018-06-17T09:46:59.602Z,54.57
2018-06-17T09:49:28.799Z,55.44
2018-06-17T09:51:57.993Z,56.28
2018-06-17T09:54:27.977Z,56.37
2018-06-17T09:56:57.156Z,55.54
2018-06-17T09:59:26.330Z,55.38
2018-06-17T10:01:55.517Z,54.33
2018-06-17T10:04:24.785Z,54.08
2018-06-17T10:06:53.763Z,53.04
2018-06-17T10:09:23.009Z,53.42
2018-06-17T10:11:52.217Z,53.01
2018-06-17T10:14:21.425Z,52.96
2018-06-17T10:16:50.639Z,51.59
2018-06-17T10:19:19.819Z,50.46
2018-06-17T10:21:48.980Z,50.14
2018-06-17T10:24:18.174Z,51.42
2018-06-17T10:26:47.350Z,51.16
2018-06-17T10:29:16.539Z,50.57
2018-06-17T10:31:45.728Z,51.87
2018-06-17T10:34:14.912Z,50.08
2018-06-17T10:36:44.092Z,50.28
2018-06-17T10:39:13.278Z,51.90
2018-06-17T10:41:42.473Z,52.06
2018-06-17T10:44:11.634Z,50.02
2018-06-17T10:46:40.794Z,50.93
2018-06-17T10:49:09.977Z,52.07
2018-06-17T10:51:39.145Z,50.42
2018-06-17T10:54:08.319Z,50.15
2018-06-17T10:56:37.498Z,51.10
2018-06-17T10:59:06.673Z,48.71
2018-06-17T11:01:35.879Z,49.74
2018-06-17T11:04:05.439Z,50.82
2018-06-17T11:06:34.603Z,50.97
2018-06-17T11:09:04.028Z,48.46
2018-06-17T11:11:32.972Z,47.58
2018-06-17T11:14:02.153Z,48.57
2018-06-17T11:16:31.327Z,49.42
2018-06-17T11:19:00.501Z,49.32
2018-06-17T11:21:29.681Z,48.51
2018-06-17T11:23:58.861Z,46.47
2018-06-17T11:26:28.073Z,46.39
2018-06-17T11:28:57.276Z,45.43
2018-06-17T11:31:26.458Z,44.91
2018-06-17T11:33:55.641Z,46.00
2018-06-17T11:36:24.856Z,45.71
2018-06-17T11:38:54.065Z,46.23
2018-06-17T11:41:23.300Z,45.53
2018-06-17T11:43:52.581Z,45.74
2018-06-17T11:46:21.755Z,43.98
2018-06-17T11:48:51.003Z,43.31
2018-06-17T11:51:20.248Z,44.63
2018-06-17T11:53:49.443Z,44.44
2018-06-17T11:56:18.685Z,45.86
2018-06-17T11:58:47.868Z,45.85
2018-06-17T12:01:17.045Z,47.40
2018-06-17T12:03:46.243Z,47.39
2018-06-17T12:06:15.433Z,46.64
2018-06-17T12:08:44.720Z,47.39
2018-06-17T12:11:13.924Z,46.04
2018-06-17T12:13:43.096Z,44.86
2018-06-17T12:16:12.285Z,44.46
2018-06-17T12:18:41.484Z,45.19
2018-06-17T12:21:10.691Z,45.11
2018-06-17T12:23:39.900Z,45.87
2018-06-17T12:26:09.058Z,45.79
2018-06-17T12:28:38.258Z,46.62
2018-06-17T12:31:07.458Z,46.52
2018-06-17T12:33:36.641Z,46.88
2018-06-17T12:36:08.534Z,48.22
2018-06-17T12:38:37.727Z,48.41
2018-06-17T12:41:07.323Z,46.90
2018-06-17T12:43:36.722Z,46.29
2018-06-17T12:46:06.490Z,46.88
2018-06-17T12:48:36.044Z,46.81
2018-06-17T12:51:05.266Z,47.63
2018-06-17T12:53:34.473Z,46.26
2018-06-17T12:56:03.690Z,47.47
2018-06-17T12:58:32.878Z,46.51
2018-06-17T13:01:02.057Z,44.78
2018-06-17T13:03:31.254Z,42.32
2018-06-17T13:06:00.436Z,41.45
2018-06-17T13:08:29.638Z,43.17
2018-06-17T13:10:58.865Z,43.32
2018-06-17T13:13:28.142Z,40.76
2018-06-17T13:15:57.649Z,40.27
2018-06-17T13:18:26.921Z,41.84
2018-06-17T13:20:56.561Z,39.35
2018-06-17T13:23:26.053Z,41.18
2018-06-17T13:25:55.578Z,42.76
2018-06-17T13:28:25.200Z,40.31
2018-06-17T13:30:54.752Z,40.08
2018-06-17T13:33:24.301Z,38.83
2018-06-17T13:35:53.875Z,40.13
2018-06-17T13:38:23.349Z,42.14
2018-06-17T13:40:52.511Z,40.45
2018-06-17T13:43:21.946Z,40.97
2018-06-17T13:45:51.159Z,40.92
2018-06-17T13:48:20.417Z,43.30
2018-06-17T13:50:49.909Z,43.70
2018-06-17T13:53:19.531Z,44.45
2018-06-17T13:55:49.097Z,44.78
2018-06-17T13:58:18.581Z,46.32
2018-06-17T14:00:47.744Z,44.48
2018-06-17T14:03:16.900Z,44.66
2018-06-17T14:05:46.068Z,46.30
2018-06-17T14:08:15.254Z,44.86
2018-06-17T14:10:44.420Z,44.71
2018-06-17T14:13:13.589Z,44.10
2018-06-17T14:15:42.756Z,43.96
2018-06-17T14:18:11.920Z,43.82
2018-06-17T14:20:41.081Z,42.72
2018-06-17T14:23:10.248Z,44.57
2018-06-17T14:25:39.492Z,45.00
2018-06-17T14:28:08.614Z,44.99
2018-06-17T14:30:37.779Z,45.08
2018-06-17T14:33:06.940Z,45.05
2018-06-17T14:35:36.125Z,45.02
2018-06-17T14:38:05.352Z,45.03
2018-06-17T14:40:38.619Z,45.92
2018-06-17T14:43:13.060Z,41.91
2018-06-17T14:45:47.597Z,43.89
2018-06-17T14:48:22.057Z,46.15
2018-06-17T14:50:56.465Z,45.74
2018-06-17T14:53:25.657Z,46.23
2018-06-17T14:55:54.861Z,44.30
2018-06-17T14:58:25.662Z,44.98
2018-06-17T15:00:54.842Z,46.06
2018-06-17T15:03:24.012Z,45.73
2018-06-17T15:05:53.232Z,45.96
2018-06-17T15:08:22.415Z,46.66
2018-06-17T15:10:51.609Z,46.27
2018-06-17T15:13:20.809Z,45.32
2018-06-17T15:15:49.824Z,45.15
2018-06-17T15:18:18.828Z,46.03
2018-06-17T15:20:47.966Z,45.07
2018-06-17T15:23:17.153Z,44.51
2018-06-17T15:25:46.350Z,43.57
2018-06-17T15:28:15.528Z,41.66
2018-06-17T15:30:44.769Z,41.27
2018-06-17T15:33:19.203Z,45.73
2018-06-17T15:35:53.439Z,41.83
2018-06-17T15:38:27.980Z,42.54
2018-06-17T15:41:02.446Z,44.07
2018-06-17T15:43:31.631Z,45.98
2018-06-17T15:46:01.040Z,46.92
2018-06-17T15:48:30.282Z,48.84
2018-06-17T15:50:59.471Z,48.85
2018-06-17T15:53:28.632Z,48.83
2018-06-17T15:55:57.884Z,48.38
2018-06-17T15:58:27.141Z,48.93
2018-06-17T16:00:56.301Z,49.08
2018-06-17T16:03:25.499Z,49.00
2018-06-17T16:05:54.970Z,48.14
2018-06-17T16:08:24.149Z,47.93
2018-06-17T16:10:53.309Z,48.44
2018-06-17T16:13:27.747Z,48.59
2018-06-17T16:17:04.014Z,48.99
2018-06-17T16:20:36.327Z,48.32
2018-06-17T16:23:05.624Z,49.17
2018-06-17T16:25:34.750Z,48.51
2018-06-17T16:28:03.980Z,48.59
2018-06-17T16:30:33.369Z,46.51
2018-06-17T16:33:02.542Z,46.33
2018-06-17T16:35:31.753Z,44.68
2018-06-17T16:38:00.962Z,45.49
2018-06-17T16:40:30.154Z,43.88
2018-06-17T16:42:59.336Z,46.93
2018-06-17T16:45:28.581Z,46.43
2018-06-17T16:47:57.738Z,48.44
2018-06-17T16:50:26.918Z,48.65
2018-06-17T16:53:01.398Z,48.44
2018-06-17T16:55:35.757Z,49.40
2018-06-17T16:58:10.331Z,49.63
2018-06-17T17:00:39.526Z,48.83
2018-06-17T17:03:08.713Z,49.95
2018-06-17T17:05:37.885Z,49.44
2018-06-17T17:08:07.045Z,49.63
2018-06-17T17:10:36.222Z,49.41
2018-06-17T17:13:05.400Z,49.76
2018-06-17T17:15:34.585Z,49.81
2018-06-17T17:18:03.746Z,50.21
2018-06-17T17:20:32.905Z,50.72
2018-06-17T17:23:02.185Z,50.72
2018-06-17T17:25:31.383Z,50.59
2018-06-17T17:28:00.561Z,50.32
2018-06-17T17:30:29.721Z,50.49
2018-06-17T17:33:04.137Z,49.75
2018-06-17T17:35:38.654Z,50.82
2018-06-17T17:38:33.045Z,51.50
2018-06-17T17:41:04.833Z,51.67
2018-06-17T17:43:35.790Z,52.17
2018-06-17T17:46:10.504Z,52.25
2018-06-17T17:48:39.726Z,51.98
2018-06-17T17:51:08.890Z,52.37
2018-06-17T17:53:38.086Z,52.84
2018-06-17T17:56:07.258Z,53.15
2018-06-17T17:58:36.429Z,53.21
2018-06-17T18:01:05.590Z,53.83
2018-06-17T18:03:34.777Z,54.09
2018-06-17T18:06:03.941Z,53.86
2018-06-17T18:08:33.096Z,53.91
2018-06-17T18:11:02.267Z,54.15
2018-06-17T18:13:31.485Z,54.14
2018-06-17T18:16:00.657Z,54.91
2018-06-17T18:18:29.827Z,55.01
2018-06-17T18:20:59.006Z,54.87
2018-06-17T18:23:28.183Z,54.13
2018-06-17T18:26:02.609Z,53.87
2018-06-17T18:28:37.175Z,54.03
2018-06-17T18:31:06.376Z,53.82
2018-06-17T18:33:40.664Z,53.35
2018-06-17T18:36:14.323Z,53.53
2018-06-17T18:38:44.812Z,53.91
2018-06-17T18:41:14.657Z,54.14
2018-06-17T18:43:43.824Z,53.69
2018-06-17T18:46:13.961Z,53.77
2018-06-17T18:48:43.129Z,53.88
2018-06-17T18:51:12.300Z,54.59
2018-06-17T18:53:41.461Z,55.53
2018-06-17T18:56:10.685Z,55.83
2018-06-17T18:58:39.845Z,56.40
2018-06-17T19:01:09.025Z,55.85
2018-06-17T19:03:37.964Z,56.17
2018-06-17T19:06:07.134Z,56.56
2018-06-17T19:08:41.694Z,56.52
2018-06-17T19:11:16.173Z,56.58
2018-06-17T19:13:50.713Z,56.43
2018-06-17T19:16:25.136Z,57.38
2018-06-17T19:18:54.590Z,57.23
2018-06-17T19:21:23.752Z,57.58
2018-06-17T19:23:52.960Z,56.94
2018-06-17T19:26:22.194Z,57.50
2018-06-17T19:28:51.415Z,57.49
2018-06-17T19:31:20.584Z,58.36
2018-06-17T19:33:49.742Z,57.77
2018-06-17T19:36:18.907Z,57.91
2018-06-17T19:38:48.064Z,57.81
2018-06-17T19:41:17.223Z,58.36
2018-06-17T19:43:46.572Z,58.62
2018-06-17T19:46:15.752Z,58.30
2018-06-17T19:48:44.900Z,58.16
2018-06-17T19:51:19.396Z,57.84
2018-06-17T19:53:53.777Z,58.30
2018-06-17T19:56:28.173Z,57.51
2018-06-17T19:59:02.664Z,58.12
2018-06-17T20:01:31.839Z,58.61
2018-06-17T20:04:01.001Z,58.42
2018-06-17T20:06:30.293Z,58.87
2018-06-17T20:08:59.344Z,58.33
2018-06-17T20:11:28.276Z,58.64
2018-06-17T20:13:57.451Z,58.71
2018-06-17T20:16:26.605Z,58.16
2018-06-17T20:18:55.758Z,58.16
2018-06-17T20:21:24.941Z,58.44
2018-06-17T20:23:54.101Z,59.62
2018-06-17T20:26:23.272Z,58.92
2018-06-17T20:28:52.434Z,59.59
2018-06-17T20:31:21.593Z,59.51
2018-06-17T20:33:55.989Z,59.56
2018-06-17T20:36:30.421Z,59.71
2018-06-17T20:40:06.756Z,59.78
2018-06-17T20:42:41.333Z,60.28
2018-06-17T20:45:10.481Z,59.82
2018-06-17T20:47:39.627Z,60.89
2018-06-17T20:50:08.797Z,61.03
2018-06-17T20:52:37.972Z,60.98
2018-06-17T20:55:07.169Z,61.25
2018-06-17T20:57:36.331Z,61.54
2018-06-17T21:00:06.249Z,61.02
2018-06-17T21:02:35.177Z,61.19
2018-06-17T21:05:04.346Z,61.80
2018-06-17T21:07:33.495Z,62.01
2018-06-17T21:10:02.674Z,62.22
2018-06-17T21:12:31.816Z,62.32
2018-06-17T21:15:05.246Z,63.07
2018-06-17T21:17:34.405Z,62.95
2018-06-17T21:20:08.915Z,62.78
2018-06-17T21:22:43.231Z,63.67
2018-06-17T21:25:17.601Z,63.35
2018-06-17T21:27:50.257Z,63.56
2018-06-17T21:30:20.268Z,63.41
2018-06-17T21:32:49.191Z,63.78
2018-06-17T21:35:18.606Z,64.37
2018-06-17T21:37:47.749Z,64.18
2018-06-17T21:40:16.919Z,64.56
2018-06-17T21:42:46.085Z,65.60
2018-06-17T21:45:15.252Z,65.34
2018-06-17T21:47:44.558Z,65.57
2018-06-17T21:50:13.728Z,65.34
2018-06-17T21:52:42.904Z,65.27
2018-06-17T21:55:12.192Z,66.17
2018-06-17T21:57:41.501Z,65.38
2018-06-17T22:00:10.970Z,66.22
2018-06-17T22:02:42.601Z,66.67
2018-06-17T22:05:12.146Z,66.36
2018-06-17T22:07:46.475Z,66.39
2018-06-17T22:10:21.045Z,66.96
2018-06-17T22:12:55.459Z,66.75
2018-06-17T22:15:29.888Z,67.38
2018-06-17T22:17:58.820Z,66.90
2018-06-17T22:20:28.058Z,67.31
2018-06-17T22:22:57.380Z,66.87
2018-06-17T22:25:26.633Z,67.41
2018-06-17T22:27:55.789Z,67.42
2018-06-17T22:30:24.749Z,68.56
2018-06-17T22:32:53.934Z,67.78
2018-06-17T22:35:23.109Z,67.86
2018-06-17T22:37:52.306Z,67.40
2018-06-17T22:40:21.473Z,67.18
2018-06-17T22:42:50.653Z,67.70
2018-06-17T22:45:19.577Z,67.65
2018-06-17T22:47:54.022Z,67.91
2018-06-17T22:50:23.202Z,68.00
2018-06-17T22:53:09.578Z,67.74
2018-06-17T22:55:38.745Z,68.15
2018-06-17T22:59:13.059Z,68.08
2018-06-17T23:01:47.619Z,67.68
2018-06-17T23:04:22.092Z,68.28
2018-06-17T23:06:56.520Z,67.90
2018-06-17T23:09:32.715Z,67.93
2018-06-17T23:12:01.934Z,67.58
2018-06-17T23:14:31.102Z,67.90
2018-06-17T23:17:00.036Z,68.23
2018-06-17T23:19:29.204Z,69.20
2018-06-17T23:21:58.376Z,68.53
2018-06-17T23:24:27.530Z,69.08
2018-06-17T23:26:56.692Z,69.35
2018-06-17T23:29:25.897Z,69.92
2018-06-17T23:31:55.061Z,68.97
2018-06-17T23:34:24.225Z,69.15
2018-06-17T23:36:53.389Z,69.63
2018-06-17T23:39:22.540Z,69.29
2018-06-17T23:41:51.713Z,69.96
2018-06-17T23:44:20.865Z,69.79
2018-06-17T23:46:55.335Z,69.62
2018-06-17T23:49:29.705Z,70.53
2018-06-17T23:52:03.930Z,70.51
2018-06-17T23:54:38.268Z,70.87
2018-06-17T23:57:07.521Z,70.35
2018-06-17T23:59:36.664Z,71.31
